createdAt,value
2022-12-14T00:01:49.224Z,79.07
2022-12-14T00:04:51.347Z,79.03
2022-12-14T00:07:52.999Z,78.90
2022-12-14T00:10:54.612Z,78.93
2022-12-14T00:13:58.744Z,79.01
2022-12-14T00:17:00.510Z,79.14
2022-12-14T00:20:02.279Z,79.04
2022-12-14T00:23:04.597Z,78.95
2022-12-14T00:26:17.723Z,78.87
2022-12-14T00:29:19.762Z,78.69
2022-12-14T00:32:21.491Z,78.63
2022-12-14T00:35:23.886Z,78.49
2022-12-14T00:38:26.278Z,78.40
2022-12-14T00:41:28.243Z,78.38
2022-12-14T00:44:29.998Z,78.52
2022-12-14T00:47:36.162Z,78.63
2022-12-14T00:50:41.142Z,78.59
2022-12-14T00:53:45.046Z,78.45
2022-12-14T00:56:46.772Z,78.15
2022-12-14T00:59:48.895Z,77.90
2022-12-14T01:02:50.625Z,77.85
2022-12-14T01:05:52.241Z,78.24
2022-12-14T01:08:55.307Z,78.38
2022-12-14T01:11:57.230Z,78.31
2022-12-14T01:14:58.954Z,78.18
2022-12-14T01:18:00.687Z,77.96
2022-12-14T01:21:09.898Z,78.08
2022-12-14T01:24:11.724Z,78.15
2022-12-14T01:27:13.556Z,78.10
2022-12-14T01:30:16.874Z,77.97
2022-12-14T01:33:18.758Z,77.81
2022-12-14T01:36:22.827Z,77.88
2022-12-14T01:39:24.475Z,77.92
2022-12-14T01:42:26.090Z,78.19
2022-12-14T01:45:28.185Z,78.23
2022-12-14T01:48:29.871Z,78.42
2022-12-14T01:51:32.973Z,78.49
2022-12-14T01:54:38.427Z,78.46
2022-12-14T01:57:50.291Z,78.48
2022-12-14T02:00:57.466Z,78.21
2022-12-14T02:03:59.951Z,77.88
2022-12-14T02:07:03.192Z,77.68
2022-12-14T02:10:06.775Z,77.50
2022-12-14T02:13:28.040Z,77.19
2022-12-14T02:16:31.000Z,77.39
2022-12-14T02:19:33.149Z,77.21
2022-12-14T02:22:40.734Z,77.53
2022-12-14T02:26:20.952Z,77.50
2022-12-14T02:29:44.604Z,77.72
2022-12-14T02:32:52.244Z,77.39
2022-12-14T02:36:01.756Z,77.70
2022-12-14T02:39:12.023Z,77.69
2022-12-14T02:42:15.306Z,77.87
2022-12-14T02:45:31.250Z,77.97
2022-12-14T02:48:41.051Z,78.03
2022-12-14T02:51:57.373Z,78.07
2022-12-14T02:55:05.939Z,77.95
2022-12-14T02:58:14.517Z,77.96
2022-12-14T03:01:20.820Z,77.79
2022-12-14T03:04:24.053Z,77.69
2022-12-14T03:07:32.688Z,77.83
2022-12-14T03:11:04.361Z,77.77
2022-12-14T03:14:10.827Z,78.04
2022-12-14T03:17:19.787Z,78.29
2022-12-14T03:20:25.827Z,78.40
2022-12-14T03:23:33.190Z,78.34
2022-12-14T03:26:41.687Z,78.08
2022-12-14T03:29:50.592Z,78.02
2022-12-14T03:32:54.314Z,78.17
2022-12-14T03:36:00.674Z,77.88
2022-12-14T03:39:04.865Z,77.97
2022-12-14T03:42:12.040Z,77.85
2022-12-14T03:46:02.687Z,77.71
2022-12-14T03:49:21.653Z,77.04
2022-12-14T03:52:30.055Z,77.08
2022-12-14T03:55:31.593Z,77.31
2022-12-14T03:58:57.298Z,77.62
2022-12-14T04:02:06.167Z,78.02
2022-12-14T04:05:20.148Z,77.84
2022-12-14T04:08:29.016Z,78.03
2022-12-14T04:11:54.279Z,77.93
2022-12-14T04:15:22.485Z,78.16
2022-12-14T04:18:57.456Z,78.05
2022-12-14T04:22:14.700Z,78.07
2022-12-14T04:25:40.020Z,78.12
2022-12-14T04:29:06.626Z,78.27
2022-12-14T04:32:14.105Z,78.22
2022-12-14T04:35:36.000Z,77.99
2022-12-14T04:38:38.324Z,77.91
2022-12-14T04:41:42.533Z,78.06
2022-12-14T04:44:48.779Z,78.12
2022-12-14T04:48:01.987Z,78.14
2022-12-14T04:51:18.427Z,78.27
2022-12-14T04:54:49.011Z,78.33
2022-12-14T04:57:58.457Z,78.24
2022-12-14T05:01:13.652Z,78.21
2022-12-14T05:04:28.903Z,77.95
2022-12-14T05:07:40.176Z,77.73
2022-12-14T05:11:23.188Z,77.56
2022-12-14T05:14:36.991Z,77.67
2022-12-14T05:17:40.231Z,77.79
2022-12-14T05:20:41.962Z,77.70
2022-12-14T05:23:43.646Z,77.28
2022-12-14T05:26:45.298Z,77.44
2022-12-14T05:29:47.018Z,77.55
2022-12-14T05:32:48.642Z,78.05
2022-12-14T05:35:50.255Z,78.29
2022-12-14T05:38:52.013Z,78.88
2022-12-14T05:41:53.628Z,78.63
2022-12-14T05:44:55.473Z,78.63
2022-12-14T05:47:57.112Z,78.31
2022-12-14T05:51:08.821Z,78.42
2022-12-14T05:54:10.596Z,78.13
2022-12-14T05:57:13.115Z,78.41
2022-12-14T06:00:15.591Z,78.35
2022-12-14T06:03:17.533Z,78.43
2022-12-14T06:06:19.752Z,78.31
2022-12-14T06:09:21.588Z,78.35
2022-12-14T06:12:23.212Z,78.28
2022-12-14T06:15:27.229Z,78.30
2022-12-14T06:18:32.413Z,78.09
2022-12-14T06:21:36.443Z,78.37
2022-12-14T06:24:38.308Z,78.27
2022-12-14T06:27:39.844Z,78.30
2022-12-14T06:30:41.598Z,78.17
2022-12-14T06:33:44.014Z,78.28
2022-12-14T06:36:46.999Z,78.61
2022-12-14T06:39:54.140Z,78.63
2022-12-14T06:42:56.348Z,78.71
2022-12-14T06:45:58.083Z,79.00
2022-12-14T06:48:59.913Z,79.06
2022-12-14T06:52:01.579Z,78.98
2022-12-14T06:55:04.145Z,79.10
2022-12-14T06:58:05.824Z,79.07
2022-12-14T07:01:09.628Z,79.15
2022-12-14T07:04:11.758Z,79.21
2022-12-14T07:07:13.502Z,78.63
2022-12-14T07:10:15.471Z,78.13
2022-12-14T07:13:17.223Z,77.81
2022-12-14T07:16:20.297Z,77.66
2022-12-14T07:19:22.037Z,77.13
2022-12-14T07:22:23.721Z,77.35
2022-12-14T07:25:25.460Z,77.54
2022-12-14T07:28:28.094Z,78.00
2022-12-14T07:31:30.194Z,78.45
2022-12-14T07:34:32.035Z,78.49
2022-12-14T07:37:33.827Z,78.72
2022-12-14T07:40:35.755Z,78.89
2022-12-14T07:43:39.238Z,78.88
2022-12-14T07:46:41.379Z,79.01
2022-12-14T07:49:43.184Z,79.09
2022-12-14T07:52:45.285Z,79.15
2022-12-14T07:55:46.974Z,79.06
2022-12-14T07:58:49.438Z,79.01
2022-12-14T08:01:52.561Z,78.78
2022-12-14T08:04:54.777Z,78.85
2022-12-14T08:07:56.503Z,78.66
2022-12-14T08:10:58.288Z,77.86
2022-12-14T08:14:01.075Z,77.73
2022-12-14T08:17:02.851Z,77.78
2022-12-14T08:20:04.855Z,78.25
2022-12-14T08:23:06.545Z,78.42
2022-12-14T08:26:08.533Z,78.04
2022-12-14T08:29:12.789Z,78.21
2022-12-14T08:32:14.718Z,78.50
2022-12-14T08:35:16.964Z,78.48
2022-12-14T08:38:18.845Z,78.55
2022-12-14T08:41:21.006Z,78.38
2022-12-14T08:44:22.845Z,78.21
2022-12-14T08:47:24.559Z,78.13
2022-12-14T08:50:26.629Z,78.14
2022-12-14T08:53:28.874Z,78.29
2022-12-14T08:56:31.303Z,78.51
2022-12-14T09:00:00.153Z,78.56
2022-12-14T09:02:54.896Z,78.58
2022-12-14T09:05:56.973Z,78.58
2022-12-14T09:08:58.613Z,78.73
2022-12-14T09:12:03.478Z,78.63
2022-12-14T09:15:06.818Z,78.53
2022-12-14T09:18:08.880Z,78.27
2022-12-14T09:21:11.077Z,78.13
2022-12-14T09:24:12.915Z,78.08
2022-12-14T09:27:14.646Z,77.15
2022-12-14T09:30:19.332Z,76.32
2022-12-14T09:33:26.517Z,75.64
2022-12-14T09:36:29.187Z,75.79
2022-12-14T09:39:36.283Z,75.94
2022-12-14T09:42:54.170Z,76.03
2022-12-14T09:46:00.250Z,75.48
2022-12-14T09:49:02.762Z,75.67
2022-12-14T09:52:06.699Z,76.58
2022-12-14T09:55:17.174Z,76.13
2022-12-14T09:58:32.803Z,76.04
2022-12-14T10:05:25.351Z,75.93
2022-12-14T10:08:40.691Z,76.23
2022-12-14T10:12:12.648Z,76.22
2022-12-14T10:15:14.647Z,76.45
2022-12-14T10:18:57.725Z,76.92
2022-12-14T10:21:55.454Z,77.49
2022-12-14T10:25:23.700Z,77.73
2022-12-14T10:28:45.943Z,77.64
2022-12-14T10:32:04.584Z,76.96
2022-12-14T10:35:20.401Z,77.04
2022-12-14T10:38:28.304Z,77.28
2022-12-14T10:41:36.201Z,77.11
2022-12-14T10:45:38.960Z,77.23
2022-12-14T10:48:48.228Z,77.38
2022-12-14T10:52:01.277Z,77.66
2022-12-14T10:55:09.373Z,77.63
2022-12-14T10:58:11.615Z,77.44
2022-12-14T11:01:15.834Z,77.29
2022-12-14T11:04:33.375Z,76.73
2022-12-14T11:07:35.174Z,76.39
2022-12-14T11:10:39.565Z,76.21
2022-12-14T11:13:48.755Z,76.18
2022-12-14T11:16:50.594Z,76.45
2022-12-14T11:20:09.917Z,76.91
2022-12-14T11:23:20.982Z,77.03
2022-12-14T11:26:29.030Z,77.29
2022-12-14T11:29:34.284Z,76.91
2022-12-14T11:32:36.078Z,76.98
2022-12-14T11:35:37.692Z,77.34
2022-12-14T11:38:39.488Z,77.50
2022-12-14T11:41:47.533Z,77.40
2022-12-14T11:44:50.615Z,77.72
2022-12-14T11:48:21.261Z,77.82
2022-12-14T11:51:23.123Z,77.50
2022-12-14T11:54:24.946Z,77.25
2022-12-14T11:57:46.830Z,77.58
2022-12-14T12:00:52.826Z,77.63
2022-12-14T12:03:58.867Z,77.52
2022-12-14T12:07:15.054Z,77.26
2022-12-14T12:10:34.170Z,77.31
2022-12-14T12:13:38.630Z,77.42
2022-12-14T12:16:42.370Z,77.64
2022-12-14T12:19:44.120Z,77.84
2022-12-14T12:22:48.323Z,78.26
2022-12-14T12:25:51.589Z,78.31
2022-12-14T12:28:57.431Z,78.30
2022-12-14T12:32:21.234Z,78.23
2022-12-14T12:35:41.800Z,78.16
2022-12-14T12:38:49.784Z,77.94
2022-12-14T12:42:05.698Z,77.69
2022-12-14T12:45:19.353Z,77.54
2022-12-14T12:48:38.899Z,77.07
2022-12-14T12:51:54.394Z,76.63
2022-12-14T12:55:10.380Z,76.93
2022-12-14T12:58:24.969Z,77.04
2022-12-14T13:01:34.723Z,77.01
2022-12-14T13:04:40.500Z,77.02
2022-12-14T13:07:49.243Z,77.54
2022-12-14T13:14:29.303Z,78.00
2022-12-14T13:17:41.977Z,78.17
2022-12-14T13:20:44.235Z,78.23
2022-12-14T13:23:51.597Z,78.24
2022-12-14T13:26:58.299Z,78.40
2022-12-14T13:30:10.087Z,78.48
2022-12-14T13:34:09.886Z,78.56
2022-12-14T13:37:37.150Z,78.68
2022-12-14T13:40:40.430Z,78.88
2022-12-14T13:44:04.434Z,78.96
2022-12-14T13:47:14.001Z,79.03
2022-12-14T13:50:44.506Z,79.16
2022-12-14T13:53:59.327Z,79.17
2022-12-14T13:57:06.822Z,79.03
2022-12-14T14:00:47.540Z,78.99
2022-12-14T14:03:54.283Z,79.00
2022-12-14T14:07:22.394Z,79.08
2022-12-14T14:10:42.322Z,79.03
2022-12-14T14:13:44.120Z,79.18
2022-12-14T14:16:56.501Z,79.21
2022-12-14T14:19:58.483Z,79.18
2022-12-14T14:23:16.068Z,79.29
2022-12-14T14:26:26.244Z,79.33
2022-12-14T14:29:29.437Z,79.31
2022-12-14T14:32:38.513Z,79.13
2022-12-14T14:35:40.268Z,79.43
2022-12-14T14:38:42.690Z,79.42
2022-12-14T14:41:45.062Z,79.56
2022-12-14T14:44:52.865Z,79.02
2022-12-14T14:47:56.206Z,79.27
2022-12-14T14:51:20.477Z,79.53
2022-12-14T14:55:15.929Z,79.59
2022-12-14T14:57:59.620Z,79.62
2022-12-14T15:01:10.998Z,79.89
2022-12-14T15:04:23.405Z,79.69
2022-12-14T15:07:29.877Z,79.60
2022-12-14T15:10:37.614Z,79.56
2022-12-14T15:13:46.304Z,79.56
2022-12-14T15:16:51.216Z,79.35
2022-12-14T15:19:55.040Z,79.35
2022-12-14T15:22:57.246Z,79.32
2022-12-14T15:26:01.107Z,79.76
2022-12-14T15:29:04.782Z,79.91
2022-12-14T15:32:06.569Z,80.08
2022-12-14T15:35:15.184Z,79.97
2022-12-14T15:38:20.479Z,80.21
2022-12-14T15:41:24.062Z,80.14
2022-12-14T15:44:25.900Z,80.30
2022-12-14T15:47:29.853Z,80.15
2022-12-14T15:50:32.801Z,80.35
2022-12-14T15:53:43.426Z,80.44
2022-12-14T15:56:55.638Z,80.99
2022-12-14T15:59:58.200Z,81.00
2022-12-14T16:03:00.468Z,81.19
2022-12-14T16:06:03.412Z,81.19
2022-12-14T16:09:24.034Z,81.19
2022-12-14T16:12:45.139Z,81.59
2022-12-14T16:15:49.493Z,81.17
2022-12-14T16:18:51.839Z,81.48
2022-12-14T16:22:24.602Z,81.42
2022-12-14T16:25:26.516Z,81.48
2022-12-14T16:28:31.323Z,81.76
2022-12-14T16:31:34.090Z,81.74
2022-12-14T16:34:35.781Z,81.42
2022-12-14T16:37:37.606Z,81.33
2022-12-14T16:40:40.375Z,81.11
2022-12-14T16:43:42.031Z,81.31
2022-12-14T16:47:03.561Z,81.25
2022-12-14T16:50:47.606Z,81.04
2022-12-14T16:53:50.049Z,80.90
2022-12-14T16:56:57.114Z,81.05
2022-12-14T17:00:04.206Z,81.33
2022-12-14T17:03:09.018Z,80.91
2022-12-14T17:06:25.221Z,80.93
2022-12-14T17:09:29.854Z,80.98
2022-12-14T17:12:31.631Z,80.83
2022-12-14T17:15:33.844Z,80.96
2022-12-14T17:18:38.069Z,80.65
2022-12-14T17:21:39.910Z,80.99
2022-12-14T17:24:41.861Z,80.94
2022-12-14T17:27:43.627Z,81.03
2022-12-14T17:30:46.539Z,80.77
2022-12-14T17:33:49.436Z,80.78
2022-12-14T17:36:51.153Z,79.86
2022-12-14T17:39:52.809Z,79.79
2022-12-14T17:42:57.075Z,80.12
2022-12-14T17:46:01.210Z,80.03
2022-12-14T17:49:06.777Z,80.23
2022-12-14T17:52:18.853Z,80.21
2022-12-14T17:55:28.972Z,80.12
2022-12-14T17:58:30.802Z,80.21
2022-12-14T18:01:32.687Z,80.45
2022-12-14T18:04:34.305Z,81.38
2022-12-14T18:07:35.996Z,81.58
2022-12-14T18:10:38.562Z,81.15
2022-12-14T18:13:40.582Z,80.83
2022-12-14T18:16:42.419Z,80.72
2022-12-14T18:19:45.054Z,80.55
2022-12-14T18:22:50.469Z,80.68
2022-12-14T18:25:54.815Z,81.20
2022-12-14T18:28:57.901Z,80.92
2022-12-14T18:32:00.070Z,81.15
2022-12-14T18:35:01.740Z,81.11
2022-12-14T18:38:03.619Z,81.18
2022-12-14T18:41:05.334Z,80.91
2022-12-14T18:44:07.051Z,81.42
2022-12-14T18:47:33.510Z,82.00
2022-12-14T18:50:30.870Z,81.64
2022-12-14T18:53:33.009Z,81.33
2022-12-14T18:56:35.031Z,81.17
2022-12-14T18:59:42.250Z,81.86
2022-12-14T19:02:46.883Z,81.45
2022-12-14T19:05:51.979Z,82.00
2022-12-14T19:08:53.831Z,81.80
2022-12-14T19:11:55.600Z,81.64
2022-12-14T19:14:58.503Z,81.81
2022-12-14T19:18:01.172Z,81.44
2022-12-14T19:21:03.410Z,81.55
2022-12-14T19:24:08.644Z,81.48
2022-12-14T19:27:10.929Z,81.55
2022-12-14T19:30:22.671Z,81.65
2022-12-14T19:33:25.709Z,81.77
2022-12-14T19:36:27.499Z,82.03
2022-12-14T19:39:29.602Z,81.80
2022-12-14T19:42:32.113Z,81.80
2022-12-14T19:45:35.053Z,81.56
2022-12-14T19:48:37.902Z,81.73
2022-12-14T19:51:39.565Z,81.96
2022-12-14T19:54:41.350Z,81.63
2022-12-14T19:57:43.073Z,81.66
2022-12-14T20:00:44.766Z,81.78
2022-12-14T20:03:46.664Z,81.73
2022-12-14T20:06:48.537Z,81.78
2022-12-14T20:09:50.272Z,82.22
2022-12-14T20:12:51.953Z,82.32
2022-12-14T20:15:58.291Z,81.70
2022-12-14T20:19:00.084Z,81.63
2022-12-14T20:22:01.853Z,81.65
2022-12-14T20:25:04.092Z,81.67
2022-12-14T20:28:05.730Z,81.91
2022-12-14T20:31:10.146Z,81.71
2022-12-14T20:34:11.868Z,82.13
2022-12-14T20:37:13.684Z,81.91
2022-12-14T20:40:15.407Z,81.90
2022-12-14T20:43:17.609Z,81.57
2022-12-14T20:46:33.399Z,81.78
2022-12-14T20:49:35.139Z,82.53
2022-12-14T20:52:36.767Z,82.32
2022-12-14T20:55:38.482Z,81.88
2022-12-14T20:58:42.020Z,81.71
2022-12-14T21:01:44.032Z,81.84
2022-12-14T21:04:46.563Z,81.62
2022-12-14T21:07:49.187Z,82.15
2022-12-14T21:10:50.814Z,82.09
2022-12-14T21:13:52.584Z,82.21
2022-12-14T21:16:54.911Z,81.94
2022-12-14T21:19:58.063Z,81.91
2022-12-14T21:22:59.957Z,81.77
2022-12-14T21:26:05.134Z,81.98
2022-12-14T21:29:08.909Z,82.57
2022-12-14T21:32:10.927Z,82.43
2022-12-14T21:35:17.500Z,82.55
2022-12-14T21:38:19.578Z,82.94
2022-12-14T21:41:39.964Z,82.56
2022-12-14T21:44:44.209Z,82.64
2022-12-14T21:47:45.905Z,82.56
2022-12-14T21:50:47.548Z,82.38
2022-12-14T21:54:00.856Z,82.21
2022-12-14T21:57:22.242Z,82.46
2022-12-14T22:00:23.926Z,82.41
2022-12-14T22:03:25.616Z,82.15
2022-12-14T22:06:27.414Z,82.46
2022-12-14T22:09:29.433Z,82.08
2022-12-14T22:12:31.213Z,82.41
2022-12-14T22:15:32.799Z,82.37
2022-12-14T22:18:34.753Z,82.51
2022-12-14T22:21:38.650Z,82.46
2022-12-14T22:24:41.029Z,82.38
2022-12-14T22:27:42.707Z,82.05
2022-12-14T22:30:44.536Z,82.50
2022-12-14T22:33:49.831Z,82.30
2022-12-14T22:36:52.805Z,81.99
2022-12-14T22:39:54.418Z,82.16
2022-12-14T22:42:56.153Z,82.07
2022-12-14T22:46:03.078Z,82.31
2022-12-14T22:49:05.018Z,82.25
2022-12-14T22:52:06.640Z,81.95
2022-12-14T22:55:08.718Z,82.33
2022-12-14T22:58:11.232Z,82.52
2022-12-14T23:01:14.150Z,82.34
2022-12-14T23:04:15.894Z,82.37
2022-12-14T23:07:18.048Z,82.16
2022-12-14T23:10:38.854Z,82.25
2022-12-14T23:13:59.330Z,82.30
2022-12-14T23:17:21.142Z,82.44
2022-12-14T23:20:41.488Z,82.24
2022-12-14T23:24:03.974Z,82.32
2022-12-14T23:27:24.426Z,82.41
2022-12-14T23:30:44.987Z,82.55
2022-12-14T23:34:05.934Z,82.66
2022-12-14T23:37:26.251Z,82.60
2022-12-14T23:40:46.865Z,82.46
2022-12-14T23:44:07.224Z,82.54
2022-12-14T23:47:27.899Z,82.44
2022-12-14T23:50:48.320Z,82.70
2022-12-14T23:54:08.836Z,82.41
2022-12-14T23:57:29.393Z,82.60
